createdAt,value
2023-04-30T00:02:14.061Z,9.93
2023-04-30T00:04:40.828Z,9.15
2023-04-30T00:07:08.527Z,6.80
2023-04-30T00:09:35.269Z,8.90
2023-04-30T00:12:01.978Z,8.82
2023-04-30T00:14:28.641Z,8.23
2023-04-30T00:16:55.315Z,9.63
2023-04-30T00:19:22.140Z,9.93
2023-04-30T00:21:48.916Z,9.30
2023-04-30T00:24:15.642Z,11.93
2023-04-30T00:26:43.842Z,9.13
2023-04-30T00:29:11.386Z,9.15
2023-04-30T00:31:38.392Z,10.90
2023-04-30T00:34:05.137Z,8.50
2023-04-30T00:36:31.905Z,8.35
2023-04-30T00:38:58.823Z,8.30
2023-04-30T00:41:26.169Z,9.35
2023-04-30T00:43:52.822Z,10.45
2023-04-30T00:46:19.601Z,10.10
2023-04-30T00:48:46.345Z,8.45
2023-04-30T00:51:13.361Z,9.38
2023-04-30T00:53:41.179Z,7.68
2023-04-30T00:56:09.741Z,8.95
2023-04-30T00:58:36.613Z,10.27
2023-04-30T01:01:04.404Z,9.20
2023-04-30T01:03:31.267Z,7.47
2023-04-30T01:05:58.070Z,8.20
2023-04-30T01:08:25.248Z,8.70
2023-04-30T01:11:10.602Z,7.88
2023-04-30T01:13:50.710Z,9.10
2023-04-30T01:16:29.537Z,8.45
2023-04-30T01:19:11.684Z,8.32
2023-04-30T01:21:41.575Z,8.90
2023-04-30T01:24:29.514Z,9.00
2023-04-30T01:27:44.238Z,7.75
2023-04-30T01:30:13.039Z,8.50
2023-04-30T01:32:40.105Z,8.48
2023-04-30T01:35:07.013Z,10.52
2023-04-30T01:38:01.464Z,7.85
2023-04-30T01:40:53.311Z,10.20
2023-04-30T01:43:51.872Z,8.02
2023-04-30T01:46:28.622Z,10.38
2023-04-30T01:49:07.463Z,6.75
2023-04-30T01:51:42.726Z,7.65
2023-04-30T01:54:27.161Z,9.30
2023-04-30T01:57:07.700Z,8.38
2023-04-30T01:59:39.682Z,8.20
2023-04-30T02:02:06.944Z,7.10
2023-04-30T02:04:33.759Z,7.85
2023-04-30T02:07:01.092Z,8.30
2023-04-30T02:09:27.975Z,8.80
2023-04-30T02:11:54.850Z,7.25
2023-04-30T02:14:21.506Z,7.95
2023-04-30T02:16:52.220Z,6.72
2023-04-30T02:19:19.040Z,11.20
2023-04-30T02:21:45.818Z,8.38
2023-04-30T02:24:12.595Z,8.23
2023-04-30T02:26:39.322Z,7.13
2023-04-30T02:29:06.062Z,7.93
2023-04-30T02:31:32.913Z,8.98
2023-04-30T02:33:59.635Z,8.20
2023-04-30T02:36:26.289Z,9.05
2023-04-30T02:38:52.962Z,8.18
2023-04-30T02:41:19.620Z,9.38
2023-04-30T02:43:46.358Z,10.02
2023-04-30T02:46:13.061Z,8.45
2023-04-30T02:48:39.791Z,7.07
2023-04-30T02:51:06.478Z,7.00
2023-04-30T02:53:33.160Z,7.65
2023-04-30T02:55:59.831Z,6.95
2023-04-30T02:58:26.652Z,8.07
2023-04-30T03:00:53.430Z,8.05
2023-04-30T03:03:20.643Z,8.73
2023-04-30T03:05:47.570Z,7.88
2023-04-30T03:08:14.247Z,6.85
2023-04-30T03:10:41.108Z,7.82
2023-04-30T03:13:07.838Z,9.50
2023-04-30T03:15:34.484Z,8.07
2023-04-30T03:18:01.218Z,7.35
2023-04-30T03:20:27.902Z,7.82
2023-04-30T03:22:54.957Z,8.70
2023-04-30T03:25:21.715Z,7.90
2023-04-30T03:27:48.431Z,10.38
2023-04-30T03:30:15.290Z,8.38
2023-04-30T03:32:42.123Z,10.05
2023-04-30T03:35:09.152Z,8.57
2023-04-30T03:37:35.876Z,10.98
2023-04-30T03:40:03.351Z,8.52
2023-04-30T03:42:30.583Z,11.23
2023-04-30T03:44:57.222Z,7.70
2023-04-30T03:47:24.364Z,9.75
2023-04-30T03:49:55.258Z,8.10
2023-04-30T03:52:22.999Z,10.07
2023-04-30T03:54:50.286Z,8.60
2023-04-30T03:57:17.614Z,8.50
2023-04-30T03:59:44.411Z,9.50
2023-04-30T04:02:11.291Z,9.18
2023-04-30T04:04:38.169Z,10.18
2023-04-30T04:07:07.743Z,10.40
2023-04-30T04:09:34.609Z,9.52
2023-04-30T04:12:03.633Z,8.48
2023-04-30T04:14:30.318Z,12.13
2023-04-30T04:17:05.610Z,10.88
2023-04-30T04:19:32.499Z,13.30
2023-04-30T04:21:59.493Z,15.30
2023-04-30T04:24:26.628Z,12.45
2023-04-30T04:26:53.881Z,14.65
2023-04-30T04:29:20.788Z,12.68
2023-04-30T04:31:49.221Z,11.43
2023-04-30T04:34:16.627Z,12.20
2023-04-30T04:36:43.363Z,12.32
2023-04-30T04:39:10.237Z,13.13
2023-04-30T04:41:37.042Z,12.40
2023-04-30T04:44:04.663Z,13.38
2023-04-30T04:46:32.127Z,12.43
2023-04-30T04:48:59.072Z,13.07
2023-04-30T04:51:25.833Z,12.32
2023-04-30T04:53:52.730Z,12.82
2023-04-30T04:56:19.754Z,12.10
2023-04-30T04:58:47.585Z,12.88
2023-04-30T05:01:14.601Z,13.00
2023-04-30T05:03:41.732Z,12.15
2023-04-30T05:06:08.636Z,10.88
2023-04-30T05:08:35.407Z,11.48
2023-04-30T05:11:03.123Z,9.70
2023-04-30T05:13:30.089Z,10.65
2023-04-30T05:15:56.857Z,12.98
2023-04-30T05:18:23.567Z,13.23
2023-04-30T05:20:50.561Z,11.15
2023-04-30T05:23:17.298Z,12.48
2023-04-30T05:25:43.987Z,12.10
2023-04-30T05:28:10.760Z,11.10
2023-04-30T05:30:37.493Z,13.15
2023-04-30T05:33:04.281Z,10.05
2023-04-30T05:35:31.590Z,11.35
2023-04-30T05:37:58.347Z,9.90
2023-04-30T05:40:25.031Z,11.95
2023-04-30T05:42:51.683Z,11.65
2023-04-30T05:45:18.524Z,11.57
2023-04-30T05:47:45.378Z,11.85
2023-04-30T05:50:12.171Z,12.23
2023-04-30T05:52:38.988Z,9.77
2023-04-30T05:55:06.592Z,13.07
2023-04-30T05:57:33.378Z,12.02
2023-04-30T06:00:00.172Z,11.57
2023-04-30T06:02:26.941Z,9.93
2023-04-30T06:04:53.734Z,10.15
2023-04-30T06:07:20.485Z,8.98
2023-04-30T06:09:47.174Z,9.60
2023-04-30T06:12:13.881Z,8.55
2023-04-30T06:14:43.433Z,9.43
2023-04-30T06:17:10.174Z,7.90
2023-04-30T06:19:38.771Z,9.52
2023-04-30T06:22:05.616Z,8.90
2023-04-30T06:24:32.661Z,11.98
2023-04-30T06:26:59.734Z,7.28
2023-04-30T06:29:26.729Z,9.65
2023-04-30T06:31:53.437Z,8.50
2023-04-30T06:34:21.018Z,8.65
2023-04-30T06:36:47.692Z,7.45
2023-04-30T06:39:16.053Z,7.82
2023-04-30T06:41:42.844Z,10.45
2023-04-30T06:44:10.377Z,7.63
2023-04-30T06:46:37.194Z,9.60
2023-04-30T06:49:03.943Z,8.25
2023-04-30T06:51:31.030Z,6.97
2023-04-30T06:53:57.719Z,9.85
2023-04-30T06:56:25.048Z,10.25
2023-04-30T06:58:51.728Z,6.57
2023-04-30T07:01:18.655Z,10.25
2023-04-30T07:03:45.488Z,7.70
2023-04-30T07:06:12.271Z,6.07
2023-04-30T07:08:41.015Z,7.03
2023-04-30T07:11:08.003Z,7.80
2023-04-30T07:13:34.791Z,6.80
2023-04-30T07:16:01.628Z,6.70
2023-04-30T07:18:28.471Z,6.10
2023-04-30T07:20:55.423Z,7.43
2023-04-30T07:23:22.210Z,6.63
2023-04-30T07:25:49.118Z,5.90
2023-04-30T07:28:15.835Z,6.07
2023-04-30T07:30:42.653Z,5.13
2023-04-30T07:33:09.519Z,6.25
2023-04-30T07:35:36.650Z,6.75
2023-04-30T07:38:04.856Z,6.47
2023-04-30T07:40:36.192Z,5.45
2023-04-30T07:43:04.689Z,8.17
2023-04-30T07:45:31.775Z,7.50
2023-04-30T07:47:58.619Z,5.63
2023-04-30T07:50:25.393Z,5.90
2023-04-30T07:52:52.070Z,5.82
2023-04-30T07:55:18.831Z,4.82
2023-04-30T07:57:45.737Z,5.30
2023-04-30T08:00:13.598Z,5.50
2023-04-30T08:02:40.466Z,4.47
2023-04-30T08:05:07.778Z,5.53
2023-04-30T08:07:34.470Z,4.47
2023-04-30T08:10:01.158Z,4.25
2023-04-30T08:12:27.898Z,4.72
2023-04-30T08:15:04.028Z,3.85
2023-04-30T08:17:32.042Z,3.50
2023-04-30T08:19:58.766Z,3.95
2023-04-30T08:22:25.570Z,3.83
2023-04-30T08:24:52.253Z,4.72
2023-04-30T08:27:18.898Z,4.55
2023-04-30T08:29:45.658Z,4.78
2023-04-30T08:32:12.536Z,4.20
2023-04-30T08:34:40.689Z,5.50
2023-04-30T08:37:07.906Z,3.70
2023-04-30T08:39:34.674Z,4.10
2023-04-30T08:42:04.061Z,4.13
2023-04-30T08:44:31.873Z,4.20
2023-04-30T08:46:59.918Z,4.93
2023-04-30T08:49:28.147Z,3.88
2023-04-30T08:51:54.898Z,4.38
2023-04-30T08:54:24.418Z,5.18
2023-04-30T08:56:51.115Z,4.55
2023-04-30T08:59:18.355Z,3.60
2023-04-30T09:01:45.812Z,4.88
2023-04-30T09:04:12.633Z,3.70
2023-04-30T09:06:39.559Z,3.67
2023-04-30T09:09:13.783Z,4.85
2023-04-30T09:11:40.892Z,3.65
2023-04-30T09:14:08.246Z,3.75
2023-04-30T09:16:52.605Z,3.13
2023-04-30T09:19:27.424Z,3.35
2023-04-30T09:21:54.926Z,3.45
2023-04-30T09:24:21.631Z,3.00
2023-04-30T09:26:49.273Z,3.33
2023-04-30T09:29:16.470Z,3.88
2023-04-30T09:31:48.308Z,3.72
2023-04-30T09:34:15.403Z,3.03
2023-04-30T09:36:55.237Z,3.10
2023-04-30T09:39:22.369Z,3.05
2023-04-30T09:41:51.696Z,4.00
2023-04-30T09:44:31.148Z,3.22
2023-04-30T09:46:59.090Z,2.78
2023-04-30T09:49:26.929Z,2.40
2023-04-30T09:52:00.870Z,2.67
2023-04-30T09:54:31.972Z,2.17
2023-04-30T09:57:01.480Z,4.55
2023-04-30T09:59:35.151Z,2.40
2023-04-30T10:02:04.683Z,3.17
2023-04-30T10:04:35.224Z,2.63
2023-04-30T10:07:24.456Z,2.95
2023-04-30T10:10:11.163Z,4.38
2023-04-30T10:12:44.913Z,2.97
2023-04-30T10:15:18.795Z,3.15
2023-04-30T10:17:50.669Z,3.05
2023-04-30T10:20:18.931Z,2.53
2023-04-30T10:22:48.170Z,2.83
2023-04-30T10:25:16.240Z,2.47
2023-04-30T10:27:43.281Z,2.75
2023-04-30T10:30:11.349Z,3.67
2023-04-30T10:32:48.431Z,2.97
2023-04-30T10:35:26.748Z,3.85
2023-04-30T10:38:12.928Z,2.30
2023-04-30T10:40:39.654Z,3.17
2023-04-30T10:43:06.374Z,2.58
2023-04-30T10:45:40.399Z,2.70
2023-04-30T10:48:07.927Z,2.53
2023-04-30T10:50:43.498Z,2.40
2023-04-30T10:53:17.925Z,3.08
2023-04-30T10:56:06.752Z,2.70
2023-04-30T10:58:39.298Z,3.60
2023-04-30T11:01:11.504Z,2.70
2023-04-30T11:03:40.831Z,2.75
2023-04-30T11:06:14.950Z,3.08
2023-04-30T11:08:45.790Z,3.05
2023-04-30T11:11:18.004Z,2.83
2023-04-30T11:13:46.256Z,2.58
2023-04-30T11:16:13.315Z,2.85
2023-04-30T11:18:45.720Z,4.78
2023-04-30T11:21:13.358Z,3.25
2023-04-30T11:23:43.910Z,3.13
2023-04-30T11:26:11.108Z,2.10
2023-04-30T11:28:38.591Z,2.40
2023-04-30T11:31:05.709Z,2.08
2023-04-30T11:33:33.883Z,2.38
2023-04-30T11:36:02.146Z,2.40
2023-04-30T11:38:33.878Z,2.30
2023-04-30T11:41:01.969Z,2.20
2023-04-30T11:43:31.301Z,3.00
2023-04-30T11:46:08.249Z,2.47
2023-04-30T11:48:39.804Z,2.58
2023-04-30T11:51:19.209Z,2.65
2023-04-30T11:53:50.744Z,3.08
2023-04-30T11:56:21.846Z,3.03
2023-04-30T11:58:50.372Z,2.80
2023-04-30T12:01:17.881Z,2.70
2023-04-30T12:03:47.090Z,2.83
2023-04-30T12:06:24.914Z,2.60
2023-04-30T12:08:56.114Z,3.92
2023-04-30T12:11:25.736Z,2.70
2023-04-30T12:14:12.598Z,2.70
2023-04-30T12:16:50.217Z,3.15
2023-04-30T12:19:18.598Z,2.47
2023-04-30T12:21:47.510Z,2.10
2023-04-30T12:24:15.764Z,2.20
2023-04-30T12:26:43.103Z,2.38
2023-04-30T12:29:15.289Z,2.30
2023-04-30T12:34:11.658Z,5.88
2023-04-30T12:36:42.677Z,3.08
2023-04-30T12:39:11.675Z,2.35
2023-04-30T12:41:46.662Z,2.53
2023-04-30T12:44:19.421Z,2.53
2023-04-30T12:46:48.088Z,2.50
2023-04-30T12:49:27.884Z,3.17
2023-04-30T12:52:02.307Z,4.80
2023-04-30T12:54:33.467Z,2.58
2023-04-30T12:57:01.467Z,2.10
2023-04-30T12:59:37.232Z,2.58
2023-04-30T13:02:14.753Z,4.20
2023-04-30T13:04:42.590Z,2.60
2023-04-30T13:07:09.935Z,2.40
2023-04-30T13:09:37.824Z,5.13
2023-04-30T13:12:04.957Z,2.63
2023-04-30T13:14:32.641Z,1.90
2023-04-30T13:16:59.656Z,2.20
2023-04-30T13:19:26.822Z,2.10
2023-04-30T13:21:53.537Z,2.25
2023-04-30T13:24:20.195Z,2.10
2023-04-30T13:26:47.471Z,2.05
2023-04-30T13:29:14.136Z,3.20
2023-04-30T13:31:42.403Z,2.60
2023-04-30T13:34:09.826Z,2.33
2023-04-30T13:36:36.886Z,2.55
2023-04-30T13:39:04.742Z,3.10
2023-04-30T13:41:31.463Z,3.00
2023-04-30T13:43:59.943Z,2.55
2023-04-30T13:46:26.862Z,3.72
2023-04-30T13:48:53.572Z,2.70
2023-04-30T13:51:20.290Z,4.55
2023-04-30T13:53:46.980Z,4.03
2023-04-30T13:56:15.333Z,3.03
2023-04-30T13:58:42.026Z,2.75
2023-04-30T14:01:10.302Z,2.80
2023-04-30T14:03:37.180Z,2.53
2023-04-30T14:06:04.289Z,3.20
2023-04-30T14:08:31.845Z,3.53
2023-04-30T14:10:58.680Z,2.20
2023-04-30T14:13:25.668Z,3.03
2023-04-30T14:15:52.372Z,4.03
2023-04-30T14:18:22.589Z,4.45
2023-04-30T14:20:50.853Z,3.50
2023-04-30T14:23:17.552Z,4.32
2023-04-30T14:25:44.462Z,3.50
2023-04-30T14:28:11.820Z,3.05
2023-04-30T14:30:38.651Z,2.60
2023-04-30T14:33:05.571Z,2.80
2023-04-30T14:35:33.485Z,2.53
2023-04-30T14:38:00.323Z,2.63
2023-04-30T14:40:27.194Z,2.80
2023-04-30T14:42:53.896Z,2.80
2023-04-30T14:45:20.779Z,2.75
2023-04-30T14:47:47.605Z,2.72
2023-04-30T14:50:14.545Z,3.08
2023-04-30T14:52:42.067Z,2.80
2023-04-30T14:55:09.143Z,2.97
2023-04-30T14:57:36.374Z,3.95
2023-04-30T15:00:03.985Z,2.83
2023-04-30T15:02:30.928Z,2.58
2023-04-30T15:06:10.493Z,2.78
2023-04-30T15:08:37.329Z,3.10
2023-04-30T15:11:06.925Z,3.20
2023-04-30T15:13:33.734Z,2.85
2023-04-30T15:16:00.538Z,3.10
2023-04-30T15:18:27.443Z,2.55
2023-04-30T15:20:54.144Z,2.60
2023-04-30T15:23:21.071Z,2.70
2023-04-30T15:25:48.900Z,2.67
2023-04-30T15:28:16.177Z,3.00
2023-04-30T15:30:42.935Z,2.90
2023-04-30T15:33:09.891Z,2.88
2023-04-30T15:35:36.720Z,2.85
2023-04-30T15:38:03.396Z,2.50
2023-04-30T15:40:30.444Z,3.92
2023-04-30T15:42:57.153Z,3.00
2023-04-30T15:45:25.250Z,2.30
2023-04-30T15:47:52.411Z,3.58
2023-04-30T15:50:19.160Z,2.45
2023-04-30T15:52:45.981Z,2.50
2023-04-30T15:55:12.853Z,5.20
2023-04-30T15:57:39.596Z,2.47
2023-04-30T16:00:07.037Z,3.13
2023-04-30T16:02:38.526Z,2.97
2023-04-30T16:05:05.488Z,2.58
2023-04-30T16:07:32.394Z,2.92
2023-04-30T16:10:00.502Z,2.50
2023-04-30T16:12:27.621Z,2.10
2023-04-30T16:14:54.676Z,2.60
2023-04-30T16:17:21.521Z,2.20
2023-04-30T16:19:48.386Z,3.13
2023-04-30T16:22:17.069Z,3.13
2023-04-30T16:24:43.752Z,3.10
2023-04-30T16:27:10.414Z,2.90
2023-04-30T16:29:37.103Z,4.07
2023-04-30T16:32:03.945Z,2.70
2023-04-30T16:34:30.768Z,2.60
2023-04-30T16:36:57.477Z,2.65
2023-04-30T16:39:24.149Z,2.75
2023-04-30T16:41:50.829Z,2.70
2023-04-30T16:44:17.480Z,2.50
2023-04-30T16:46:44.268Z,3.13
2023-04-30T16:49:10.909Z,2.75
2023-04-30T16:51:37.594Z,2.85
2023-04-30T16:54:04.262Z,2.72
2023-04-30T16:56:30.930Z,3.80
2023-04-30T16:58:57.579Z,3.10
2023-04-30T17:01:24.587Z,3.20
2023-04-30T17:03:51.585Z,2.97
2023-04-30T17:06:18.488Z,2.50
2023-04-30T17:08:45.318Z,3.85
2023-04-30T17:11:12.093Z,3.40
2023-04-30T17:13:38.795Z,3.10
2023-04-30T17:16:05.801Z,3.30
2023-04-30T17:18:32.612Z,2.55
2023-04-30T17:20:59.341Z,3.80
2023-04-30T17:23:26.082Z,56.47
2023-04-30T17:25:52.948Z,34.13
2023-04-30T17:28:19.651Z,16.77
2023-04-30T17:30:46.425Z,4.80
2023-04-30T17:33:13.198Z,2.45
2023-04-30T17:35:39.925Z,2.80
2023-04-30T17:38:06.668Z,2.50
2023-04-30T17:40:33.485Z,2.70
2023-04-30T17:43:00.857Z,2.92
2023-04-30T17:45:27.637Z,2.97
2023-04-30T17:47:54.511Z,3.17
2023-04-30T17:50:21.422Z,2.83
2023-04-30T17:52:48.484Z,3.67
2023-04-30T17:55:15.199Z,3.78
2023-04-30T17:57:42.334Z,2.83
2023-04-30T18:00:09.519Z,2.58
2023-04-30T18:02:43.138Z,3.42
2023-04-30T18:05:11.618Z,3.05
2023-04-30T18:07:38.450Z,2.88
2023-04-30T18:10:05.563Z,2.60
2023-04-30T18:12:32.324Z,3.00
2023-04-30T18:14:59.111Z,3.10
2023-04-30T18:17:25.932Z,2.53
2023-04-30T18:19:52.847Z,3.03
2023-04-30T18:22:19.679Z,3.40
2023-04-30T18:24:46.351Z,5.40
2023-04-30T18:27:13.173Z,4.30
2023-04-30T18:29:39.903Z,4.93
2023-04-30T18:32:06.625Z,5.75
2023-04-30T18:34:33.372Z,4.28
2023-04-30T18:37:00.442Z,3.20
2023-04-30T18:39:27.352Z,2.60
2023-04-30T18:41:54.064Z,3.08
2023-04-30T18:44:29.897Z,2.72
2023-04-30T18:46:56.883Z,2.50
2023-04-30T18:49:23.735Z,2.88
2023-04-30T18:51:50.724Z,3.38
2023-04-30T18:54:17.590Z,2.50
2023-04-30T18:56:45.193Z,2.80
2023-04-30T18:59:11.882Z,5.78
2023-04-30T19:01:38.636Z,3.35
2023-04-30T19:04:05.403Z,4.13
2023-04-30T19:06:33.664Z,3.25
2023-04-30T19:09:00.684Z,4.68
2023-04-30T19:11:27.640Z,4.72
2023-04-30T19:13:54.298Z,5.53
2023-04-30T19:16:21.355Z,5.68
2023-04-30T19:18:48.155Z,5.22
2023-04-30T19:21:15.102Z,5.95
2023-04-30T19:23:42.370Z,5.32
2023-04-30T19:26:09.067Z,5.75
2023-04-30T19:28:35.772Z,5.93
2023-04-30T19:31:03.986Z,4.22
2023-04-30T19:33:36.404Z,3.78
2023-04-30T19:36:03.226Z,4.40
2023-04-30T19:38:29.892Z,5.22
2023-04-30T19:40:56.576Z,4.40
2023-04-30T19:43:24.372Z,4.18
2023-04-30T19:45:56.512Z,4.75
2023-04-30T19:48:24.549Z,4.20
2023-04-30T19:50:55.623Z,4.57
2023-04-30T19:53:24.712Z,3.97
2023-04-30T19:55:52.514Z,4.18
2023-04-30T19:58:19.545Z,6.03
2023-04-30T20:00:46.481Z,4.15
2023-04-30T20:03:14.715Z,4.72
2023-04-30T20:05:42.193Z,5.00
2023-04-30T20:08:09.408Z,5.28
2023-04-30T20:10:37.942Z,5.30
2023-04-30T20:13:06.087Z,5.38
2023-04-30T20:15:33.316Z,7.78
2023-04-30T20:18:01.142Z,8.95
2023-04-30T20:20:28.989Z,6.60
2023-04-30T20:22:56.452Z,8.45
2023-04-30T20:25:25.843Z,7.70
2023-04-30T20:27:52.510Z,6.25
2023-04-30T20:30:20.829Z,6.82
2023-04-30T20:32:47.817Z,10.30
2023-04-30T20:35:14.712Z,5.53
2023-04-30T20:37:41.603Z,6.93
2023-04-30T20:40:08.938Z,6.95
2023-04-30T20:42:35.999Z,5.22
2023-04-30T20:45:05.413Z,5.07
2023-04-30T20:47:32.610Z,5.00
2023-04-30T20:49:59.432Z,5.90
2023-04-30T20:52:26.174Z,4.50
2023-04-30T20:54:52.974Z,4.28
2023-04-30T20:57:19.657Z,4.15
2023-04-30T20:59:46.335Z,4.60
2023-04-30T21:02:13.092Z,3.63
2023-04-30T21:04:39.811Z,3.53
2023-04-30T21:07:06.765Z,7.47
2023-04-30T21:09:34.594Z,3.97
2023-04-30T21:12:04.459Z,4.65
2023-04-30T21:14:32.010Z,4.57
2023-04-30T21:16:59.670Z,4.60
2023-04-30T21:19:26.670Z,4.43
2023-04-30T21:21:53.420Z,3.92
2023-04-30T21:24:20.884Z,4.53
2023-04-30T21:26:47.948Z,5.75
2023-04-30T21:29:14.734Z,4.28
2023-04-30T21:31:41.476Z,5.15
2023-04-30T21:34:08.203Z,4.00
2023-04-30T21:36:35.478Z,4.18
2023-04-30T21:39:02.296Z,3.80
2023-04-30T21:41:30.215Z,6.05
2023-04-30T21:43:57.187Z,3.83
2023-04-30T21:46:24.442Z,4.85
2023-04-30T21:48:51.212Z,4.80
2023-04-30T21:51:18.023Z,4.20
2023-04-30T21:53:45.617Z,6.07
2023-04-30T21:56:12.676Z,4.47
2023-04-30T21:58:39.597Z,6.32
2023-04-30T22:01:06.398Z,5.07
2023-04-30T22:03:33.808Z,4.15
2023-04-30T22:06:00.906Z,5.10
2023-04-30T22:08:28.018Z,4.55
2023-04-30T22:10:59.457Z,4.80
2023-04-30T22:13:30.144Z,5.50
2023-04-30T22:15:57.104Z,4.18
2023-04-30T22:18:24.461Z,3.63
2023-04-30T22:20:52.247Z,3.92
2023-04-30T22:23:22.066Z,5.18
2023-04-30T22:25:49.185Z,4.47
2023-04-30T22:28:16.899Z,3.83
2023-04-30T22:30:44.984Z,4.47
2023-04-30T22:33:11.729Z,3.33
2023-04-30T22:35:38.996Z,3.45
2023-04-30T22:38:06.477Z,6.75
2023-04-30T22:40:34.777Z,3.60
2023-04-30T22:43:02.225Z,3.60
2023-04-30T22:45:32.319Z,3.58
2023-04-30T22:48:01.339Z,4.85
2023-04-30T22:50:30.032Z,4.55
2023-04-30T22:52:57.339Z,5.43
2023-04-30T22:55:25.013Z,4.15
2023-04-30T22:57:51.746Z,4.43
2023-04-30T23:00:20.265Z,6.25
2023-04-30T23:02:46.950Z,4.90
2023-04-30T23:05:13.723Z,6.32
2023-04-30T23:07:40.703Z,4.55
2023-04-30T23:10:07.709Z,4.32
2023-04-30T23:12:35.558Z,3.90
2023-04-30T23:15:02.279Z,5.20
2023-04-30T23:17:28.993Z,5.18
2023-04-30T23:19:55.954Z,4.50
2023-04-30T23:22:22.880Z,6.32
2023-04-30T23:24:49.562Z,4.47
2023-04-30T23:27:17.257Z,4.38
2023-04-30T23:29:44.444Z,4.03
2023-04-30T23:32:11.360Z,4.13
2023-04-30T23:34:38.050Z,5.47
2023-04-30T23:37:04.784Z,4.53
2023-04-30T23:39:32.005Z,5.93
2023-04-30T23:41:58.686Z,4.40
2023-04-30T23:44:25.356Z,4.78
2023-04-30T23:46:52.147Z,4.93
2023-04-30T23:49:18.919Z,5.13
2023-04-30T23:51:45.807Z,4.20
2023-04-30T23:54:12.524Z,4.35
2023-04-30T23:56:39.228Z,7.05
2023-04-30T23:59:05.923Z,4.10
